Time;durP1;ratioP1;P1;durP2;ratioP2;P2;SDS_P1;SDS_P2;PMS_P1;PMS_P2;Temp;Humidity;BMP_temperature;BMP_pressure;BME280_temperature;BME280_humidity;BME280_pressure;Samples;Min_cycle;Max_cycle;Signal;HPM_P1;HPM_P2
2023/06/12 00:00:56;;;;;;;0.10;0.10;;;;;;;23.67;43.86;101609.78;5082831;28;20032;-79
2023/06/12 00:03:25;;;;;;;0.10;0.10;;;;;;;23.63;44.53;101607.38;5093635;28;20119;-80
2023/06/12 00:05:52;;;;;;;0.20;0.20;;;;;;;23.58;43.93;101611.25;5089812;28;20028;-79
2023/06/12 00:08:19;;;;;;;0.10;0.10;;;;;;;23.54;44.48;101603.41;5083798;28;20032;-79
2023/06/12 00:10:47;;;;;;;0.00;0.00;;;;;;;23.51;44.32;101604.47;5076580;28;20033;-78
2023/06/12 00:13:14;;;;;;;0.20;0.20;;;;;;;23.47;44.83;101602.94;5075911;28;20385;-81
2023/06/12 00:15:40;;;;;;;0.15;0.15;;;;;;;23.44;44.65;101603.16;5086367;28;20079;-79
2023/06/12 00:18:06;;;;;;;0.45;0.38;;;;;;;23.39;44.53;101603.41;5091737;28;20024;-80
2023/06/12 00:20:33;;;;;;;0.10;0.10;;;;;;;23.38;44.44;101600.81;5085402;28;20028;-80
2023/06/12 00:23:01;;;;;;;0.65;0.15;;;;;;;23.35;45.25;101595.59;5078541;28;20485;-79
2023/06/12 00:25:27;;;;;;;0.00;0.00;;;;;;;23.32;45.18;101598.50;5088548;28;20025;-80
2023/06/12 00:27:53;;;;;;;0.10;0.10;;;;;;;23.30;44.99;101605.81;5076750;28;20624;-79
2023/06/12 00:30:20;;;;;;;0.00;0.00;;;;;;;23.26;45.00;101595.22;5081389;28;20066;-80
2023/06/12 00:32:46;;;;;;;0.10;0.10;;;;;;;23.25;44.48;101603.41;5100048;28;20020;-81
2023/06/12 00:35:12;;;;;;;0.00;0.00;;;;;;;23.19;44.91;101601.97;5087917;28;20107;-81
2023/06/12 00:37:41;;;;;;;0.47;0.32;;;;;;;23.17;44.72;101613.81;5085898;28;20028;-79
2023/06/12 00:40:10;;;;;;;0.00;0.00;;;;;;;23.12;44.82;101610.50;5088944;28;20029;-80
2023/06/12 00:42:42;;;;;;;0.08;0.08;;;;;;;23.09;45.33;101611.53;5086798;28;20061;-79
2023/06/12 00:45:09;;;;;;;;;;;;;;;23.14;45.22;101611.25;5088463;28;20024;-79
2023/06/12 00:47:36;;;;;;;0.20;0.20;;;;;;;22.98;45.60;101611.31;5090518;28;19912;-79
2023/06/12 00:50:02;;;;;;;0.20;0.20;;;;;;;22.94;45.80;101610.63;5103788;28;20992;-79
2023/06/12 00:52:34;;;;;;;0.10;0.10;;;;;;;22.94;45.17;101613.34;5102809;28;20037;-78
2023/06/12 00:55:02;;;;;;;0.10;0.10;;;;;;;22.91;45.82;101610.84;5086183;28;20040;-79
2023/06/12 00:57:28;;;;;;;0.00;0.00;;;;;;;22.89;45.54;101613.63;5086425;28;20036;-80
2023/06/12 00:59:54;;;;;;;0.45;0.20;;;;;;;22.86;45.53;101608.41;5100434;28;20058;-80
2023/06/12 01:02:22;;;;;;;0.17;0.17;;;;;;;22.84;45.70;101610.34;5095744;28;20021;-79
2023/06/12 01:04:50;;;;;;;0.03;0.03;;;;;;;22.82;45.57;101604.16;5107138;28;20023;-80
2023/06/12 01:07:43;;;;;;;0.10;0.10;;;;;;;22.86;45.79;101611.09;5093566;28;20028;-80
2023/06/12 01:10:17;;;;;;;0.10;0.10;;;;;;;22.81;45.82;101610.50;5091329;28;20040;-80
2023/06/12 01:12:46;;;;;;;0.03;0.03;;;;;;;22.78;45.52;101616.97;5084586;28;20028;-79
2023/06/12 01:15:13;;;;;;;0.10;0.10;;;;;;;22.76;45.95;101610.78;5083649;28;20048;-80
2023/06/12 01:17:41;;;;;;;0.10;0.10;;;;;;;22.77;45.53;101611.66;5080081;28;20048;-82
2023/06/12 01:20:11;;;;;;;0.10;0.10;;;;;;;22.77;45.74;101608.97;5082255;28;20671;-81
2023/06/12 01:22:42;;;;;;;0.00;0.00;;;;;;;22.79;45.57;101615.13;5100707;28;20020;-80
2023/06/12 01:28:05;;;;;;;0.00;0.00;;;;;;;22.85;45.39;101617.47;5066476;28;20146;-81
2023/06/12 01:33:30;;;;;;;0.20;0.20;;;;;;;22.81;45.53;101624.00;5095770;27;20389;-81
2023/06/12 01:36:00;;;;;;;0.15;0.15;;;;;;;22.82;45.49;101619.47;5085228;28;20031;-80
2023/06/12 01:38:28;;;;;;;0.00;0.00;;;;;;;22.80;46.39;101622.28;5083228;28;20044;-81
2023/06/12 01:40:57;;;;;;;0.38;0.30;;;;;;;22.79;46.24;101623.22;5064272;28;20051;-80
2023/06/12 01:43:24;;;;;;;0.10;0.10;;;;;;;22.79;45.88;101615.13;5066306;28;20495;-82
2023/06/12 01:45:50;;;;;;;0.10;0.10;;;;;;;22.77;46.10;101627.88;5064206;28;20028;-84
2023/06/12 01:48:16;;;;;;;0.10;0.10;;;;;;;22.76;45.53;101612.63;5053961;28;20033;-86
2023/06/12 01:50:43;;;;;;;0.00;0.00;;;;;;;22.74;46.13;101620.81;5058364;28;20025;-84
2023/06/12 01:53:10;;;;;;;0.00;0.00;;;;;;;22.72;45.99;101628.13;5070645;28;20074;-84
2023/06/12 01:55:37;;;;;;;0.10;0.10;;;;;;;22.69;46.19;101628.34;5056813;28;20413;-83
2023/06/12 01:58:03;;;;;;;0.10;0.10;;;;;;;22.66;46.85;101628.50;5052774;28;20189;-85
2023/06/12 02:00:30;;;;;;;0.10;0.10;;;;;;;22.64;46.09;101629.53;5060431;28;20055;-84
2023/06/12 02:02:56;;;;;;;0.00;0.00;;;;;;;22.59;45.93;101622.59;5050319;28;20025;-81
2023/06/12 02:05:23;;;;;;;0.08;0.08;;;;;;;22.54;45.81;101616.59;5064723;28;20029;-80
2023/06/12 02:07:49;;;;;;;0.10;0.10;;;;;;;22.50;46.64;101628.50;5063045;28;20037;-83
2023/06/12 02:10:15;;;;;;;0.00;0.00;;;;;;;22.44;46.57;101626.16;5066958;28;20044;-80
2023/06/12 02:12:43;;;;;;;0.10;0.10;;;;;;;22.39;46.48;101630.97;5074730;28;20056;-84
2023/06/12 02:15:11;;;;;;;0.57;0.57;;;;;;;22.33;46.81;101625.88;5058433;28;20025;-85
2023/06/12 02:17:38;;;;;;;0.10;0.10;;;;;;;22.25;46.71;101627.19;5060978;28;20079;-84
2023/06/12 02:20:05;;;;;;;0.00;0.00;;;;;;;22.18;47.50;101633.91;5052834;28;20031;-81
2023/06/12 02:22:34;;;;;;;0.10;0.10;;;;;;;22.14;47.16;101635.03;5049649;28;20033;-83
2023/06/12 02:25:03;;;;;;;0.00;0.00;;;;;;;22.06;47.56;101635.47;5055343;28;20053;-82
2023/06/12 02:27:33;;;;;;;0.00;0.00;;;;;;;22.00;47.47;101629.56;5050257;28;20021;-84
2023/06/12 02:29:59;;;;;;;0.10;0.10;;;;;;;21.93;47.06;101631.69;5047919;28;20040;-83
2023/06/12 02:32:27;;;;;;;0.00;0.00;;;;;;;21.84;47.22;101633.09;5049529;28;20169;-85
2023/06/12 02:34:54;;;;;;;0.22;0.22;;;;;;;21.79;47.37;101627.06;5050586;28;20048;-85
2023/06/12 02:37:20;;;;;;;1.02;0.85;;;;;;;21.74;47.98;101629.16;5051730;28;20029;-82
2023/06/12 02:39:46;;;;;;;0.10;0.10;;;;;;;21.69;47.16;101632.09;5058275;28;20043;-82
2023/06/12 02:42:12;;;;;;;0.10;0.10;;;;;;;21.64;47.85;101635.03;5052486;28;20120;-83
2023/06/12 02:44:39;;;;;;;0.10;0.10;;;;;;;21.62;47.03;101627.97;5039818;28;20021;-83
2023/06/12 02:47:05;;;;;;;0.00;0.00;;;;;;;21.57;47.43;101633.66;5050767;28;20036;-83
2023/06/12 02:49:31;;;;;;;0.40;0.40;;;;;;;21.53;47.60;101637.41;5044096;28;20048;-83
2023/06/12 02:51:58;;;;;;;0.10;0.10;;;;;;;21.51;47.49;101639.34;5051524;28;20116;-84
2023/06/12 02:54:26;;;;;;;0.17;0.17;;;;;;;21.50;47.42;101634.88;5040573;28;20033;-84
2023/06/12 02:56:55;;;;;;;0.57;0.40;;;;;;;21.46;47.69;101636.03;5047247;28;20116;-83
2023/06/12 02:59:23;;;;;;;0.10;0.10;;;;;;;21.42;48.18;101635.31;5044106;28;20095;-81
2023/06/12 03:01:49;;;;;;;0.10;0.10;;;;;;;21.38;48.39;101632.84;5039261;28;20017;-82
2023/06/12 03:04:20;;;;;;;0.90;0.55;;;;;;;21.36;48.53;101635.63;5040326;28;20040;-84
2023/06/12 03:06:48;;;;;;;0.00;0.00;;;;;;;21.33;47.67;101633.97;5030331;28;20034;-85
2023/06/12 03:09:16;;;;;;;0.00;0.00;;;;;;;21.28;49.18;101638.75;5043436;28;20025;-84
2023/06/12 03:11:43;;;;;;;0.10;0.10;;;;;;;21.24;48.69;101641.66;5042314;28;20025;-84
2023/06/12 03:14:09;;;;;;;0.10;0.10;;;;;;;21.20;48.28;101643.66;5042299;28;20026;-84
2023/06/12 03:16:36;;;;;;;0.00;0.00;;;;;;;21.19;49.07;101644.59;5043293;28;20044;-84
2023/06/12 03:19:02;;;;;;;0.00;0.00;;;;;;;21.17;49.03;101643.78;5045742;28;20081;-84
2023/06/12 03:21:28;;;;;;;0.00;0.00;;;;;;;21.15;48.94;101643.03;5052771;28;20723;-84
2023/06/12 03:23:56;;;;;;;0.20;0.20;;;;;;;21.13;49.24;101644.91;5048502;28;20026;-84
2023/06/12 03:26:23;;;;;;;0.00;0.00;;;;;;;21.11;49.49;101641.41;5047725;28;20059;-82
2023/06/12 03:28:49;;;;;;;0.00;0.00;;;;;;;21.08;49.16;101646.97;5047274;28;20052;-82
2023/06/12 03:31:15;;;;;;;0.10;0.10;;;;;;;21.07;49.28;101648.81;5056654;28;20111;-82
2023/06/12 03:33:41;;;;;;;0.03;0.03;;;;;;;21.04;49.17;101645.41;5039599;28;20551;-80
2023/06/12 03:36:08;;;;;;;0.35;0.35;;;;;;;21.01;48.91;101644.59;5054533;28;20035;-82
2023/06/12 03:38:34;;;;;;;0.30;0.30;;;;;;;21.00;49.58;101650.06;5056132;28;20036;-81
2023/06/12 03:41:03;;;;;;;0.20;0.20;;;;;;;20.96;49.39;101652.06;5036998;28;20044;-82
2023/06/12 03:43:29;;;;;;;0.10;0.10;;;;;;;20.94;50.20;101650.38;5024204;28;20067;-83
2023/06/12 03:45:55;;;;;;;0.10;0.10;;;;;;;20.93;49.08;101649.50;5031335;28;20040;-83
2023/06/12 03:48:21;;;;;;;0.10;0.10;;;;;;;20.92;50.50;101654.97;5046590;28;20025;-83
2023/06/12 03:50:50;;;;;;;0.13;0.13;;;;;;;20.91;50.50;101664.88;5034707;28;20049;-83
2023/06/12 03:53:16;;;;;;;0.00;0.00;;;;;;;20.91;50.77;101654.09;5043340;28;20080;-85
2023/06/12 03:55:43;;;;;;;0.20;0.20;;;;;;;20.92;50.89;101658.56;5049984;28;20107;-84
2023/06/12 03:58:10;;;;;;;0.05;0.05;;;;;;;20.95;50.92;101671.00;5039836;28;20067;-85
2023/06/12 04:00:36;;;;;;;0.00;0.00;;;;;;;20.98;50.09;101658.22;5039522;28;20055;-82
2023/06/12 04:03:02;;;;;;;0.10;0.10;;;;;;;21.01;49.41;101663.47;5042525;28;20060;-82
2023/06/12 04:05:29;;;;;;;0.10;0.10;;;;;;;21.05;50.16;101664.19;5040729;28;20087;-82
2023/06/12 04:07:55;;;;;;;0.20;0.20;;;;;;;21.08;50.22;101664.00;5039178;28;20033;-82
2023/06/12 04:10:22;;;;;;;0.20;0.20;;;;;;;21.13;50.05;101674.56;5042131;28;20025;-84
2023/06/12 04:12:49;;;;;;;0.00;0.00;;;;;;;21.17;50.85;101685.09;5046941;28;20091;-84
2023/06/12 04:15:16;;;;;;;0.30;0.28;;;;;;;21.22;50.54;101675.91;5042044;28;20735;-84
2023/06/12 04:17:42;;;;;;;0.70;0.70;;;;;;;21.24;51.53;101674.88;5047512;28;20044;-85
2023/06/12 04:20:09;;;;;;;0.00;0.00;;;;;;;21.28;50.49;101679.16;5042809;28;20056;-84
2023/06/12 04:22:35;;;;;;;0.20;0.20;;;;;;;21.29;50.43;101678.19;5050723;28;20033;-86
2023/06/12 04:25:05;;;;;;;0.10;0.10;;;;;;;21.33;50.42;101679.81;5050426;28;20037;-85
2023/06/12 04:27:33;;;;;;;0.00;0.00;;;;;;;21.37;50.29;101679.63;5039866;28;20082;-85
2023/06/12 04:29:59;;;;;;;0.00;0.00;;;;;;;21.38;50.84;101681.38;5039385;28;20033;-84
2023/06/12 04:32:25;;;;;;;0.10;0.10;;;;;;;21.38;49.72;101675.97;5048641;28;20029;-84
2023/06/12 04:34:52;;;;;;;0.00;0.00;;;;;;;21.39;50.37;101683.97;5046185;28;20044;-80
2023/06/12 04:37:19;;;;;;;0.00;0.00;;;;;;;21.39;50.38;101683.97;5055224;28;20105;-79
2023/06/12 04:39:45;;;;;;;0.10;0.10;;;;;;;21.40;50.47;101684.88;5040171;28;20033;-83
2023/06/12 04:42:16;;;;;;;0.00;0.00;;;;;;;21.41;50.46;101678.50;5036120;28;20048;-84
2023/06/12 04:44:43;;;;;;;0.10;0.10;;;;;;;21.41;50.43;101683.88;5039926;28;20021;-85
2023/06/12 04:47:10;;;;;;;0.05;0.05;;;;;;;21.41;50.51;101689.28;5037821;28;20021;-81
2023/06/12 04:49:41;;;;;;;0.43;0.43;;;;;;;21.41;50.78;101681.19;5045093;28;20067;-84
2023/06/12 04:52:08;;;;;;;0.00;0.00;;;;;;;21.41;51.27;101675.81;5047391;28;20387;-83
2023/06/12 04:54:35;;;;;;;0.00;0.00;;;;;;;21.40;51.26;101680.34;5044829;28;20025;-85
2023/06/12 04:57:04;;;;;;;0.00;0.00;;;;;;;21.41;51.55;101683.88;5038685;28;20022;-84
2023/06/12 04:59:38;;;;;;;0.10;0.10;;;;;;;21.38;51.13;101676.84;5040758;28;20040;-85
2023/06/12 05:02:07;;;;;;;0.00;0.00;;;;;;;21.41;51.04;101673.09;5034422;28;20021;-86
2023/06/12 05:04:36;;;;;;;0.03;0.03;;;;;;;21.41;50.68;101676.69;5046141;28;20040;-84
2023/06/12 05:07:04;;;;;;;0.03;0.03;;;;;;;21.44;51.44;101670.28;5050265;28;20040;-84
2023/06/12 05:09:31;;;;;;;0.03;0.03;;;;;;;21.47;51.32;101678.19;5055858;28;20040;-84
2023/06/12 05:12:00;;;;;;;0.20;0.20;;;;;;;21.48;51.24;101682.63;5033500;28;20570;-83
2023/06/12 05:14:27;;;;;;;0.10;0.10;;;;;;;21.52;50.70;101684.22;5030786;28;20060;-85
2023/06/12 05:16:56;;;;;;;0.10;0.10;;;;;;;21.54;51.33;101686.84;5037018;28;20055;-85
2023/06/12 05:19:22;;;;;;;0.10;0.10;;;;;;;21.57;51.26;101681.28;5047365;28;20056;-85
2023/06/12 05:21:49;;;;;;;0.10;0.10;;;;;;;21.60;50.72;101682.00;5054604;28;20070;-83
2023/06/12 05:24:15;;;;;;;0.00;0.00;;;;;;;21.66;50.90;101686.22;5057315;28;20077;-82
2023/06/12 05:26:41;;;;;;;0.00;0.00;;;;;;;21.67;50.86;101679.88;5043355;28;20028;-80
2023/06/12 05:29:07;;;;;;;0.10;0.10;;;;;;;21.71;50.57;101685.94;5045042;28;20029;-83
2023/06/12 05:31:34;;;;;;;3.42;0.40;;;;;;;21.74;50.31;101677.72;5042375;28;20119;-81
2023/06/12 05:34:02;;;;;;;0.43;0.43;;;;;;;21.77;50.22;101680.22;5047399;28;20022;-82
2023/06/12 05:36:28;;;;;;;0.10;0.10;;;;;;;21.81;50.06;101677.28;5033987;28;20025;-82
2023/06/12 05:38:54;;;;;;;0.10;0.10;;;;;;;21.87;50.00;101680.59;5035387;28;20026;-82
2023/06/12 05:41:20;;;;;;;0.00;0.00;;;;;;;21.91;49.66;101680.34;5036513;28;20063;-84
2023/06/12 05:43:47;;;;;;;0.10;0.10;;;;;;;21.95;49.75;101681.91;5044158;28;20075;-83
2023/06/12 05:46:13;;;;;;;0.10;0.10;;;;;;;22.01;49.40;101679.84;5029913;28;20067;-82
2023/06/12 05:48:39;;;;;;;0.38;0.35;;;;;;;22.05;49.58;101684.13;5037877;28;20032;-82
2023/06/12 05:51:07;;;;;;;0.10;0.10;;;;;;;22.07;49.22;101679.50;5043410;28;20045;-81
2023/06/12 05:53:34;;;;;;;0.10;0.10;;;;;;;22.10;49.54;101685.59;5042868;28;20040;-84
2023/06/12 05:56:01;;;;;;;0.10;0.10;;;;;;;22.13;49.80;101689.94;5037978;28;20026;-82
2023/06/12 05:58:27;;;;;;;0.10;0.10;;;;;;;22.18;49.36;101692.41;5036580;28;20052;-83
2023/06/12 06:00:55;;;;;;;0.10;0.10;;;;;;;22.22;49.30;101692.16;5040764;28;20045;-80
2023/06/12 06:03:23;;;;;;;0.10;0.10;;;;;;;22.25;49.09;101689.28;5041188;28;20030;-81
2023/06/12 06:05:50;;;;;;;0.10;0.10;;;;;;;22.32;48.99;101689.81;5039450;28;20022;-86
2023/06/12 06:08:16;;;;;;;0.10;0.10;;;;;;;22.37;48.72;101689.53;5037354;28;20669;-85
2023/06/12 06:10:42;;;;;;;0.05;0.05;;;;;;;22.41;48.73;101685.75;5039573;28;20085;-85
2023/06/12 06:13:10;;;;;;;0.20;0.20;;;;;;;22.45;48.77;101690.03;5039511;28;20034;-83
2023/06/12 06:15:36;;;;;;;0.40;0.40;;;;;;;22.48;48.75;101688.97;5042917;28;20030;-81
2023/06/12 06:18:03;;;;;;;0.15;0.15;;;;;;;22.49;48.88;101686.19;5052624;28;20321;-84
2023/06/12 06:20:29;;;;;;;0.15;0.15;;;;;;;22.50;48.81;101693.31;5055966;28;20016;-85
2023/06/12 06:22:55;;;;;;;0.30;0.30;;;;;;;22.51;48.85;101689.66;5050044;28;20030;-82
2023/06/12 06:25:22;;;;;;;0.10;0.10;;;;;;;22.52;48.98;101696.81;5058395;28;20108;-82
2023/06/12 06:27:55;;;;;;;0.10;0.10;;;;;;;22.54;49.09;101708.41;5055187;28;20040;-82
2023/06/12 06:30:21;;;;;;;0.25;0.25;;;;;;;22.54;49.22;101700.31;5047892;28;20021;-84
2023/06/12 06:32:47;;;;;;;0.10;0.10;;;;;;;22.55;49.21;101699.31;5066793;28;20032;-78
2023/06/12 06:35:13;;;;;;;0.10;0.10;;;;;;;22.58;49.48;101704.56;5062687;28;20033;-81
2023/06/12 06:37:39;;;;;;;0.00;0.00;;;;;;;22.61;49.65;101698.97;5069488;28;20019;-79
2023/06/12 06:40:06;;;;;;;0.10;0.10;;;;;;;22.66;49.80;101708.66;5072482;28;20100;-78
2023/06/12 06:42:32;;;;;;;0.47;0.25;;;;;;;22.71;49.81;101707.44;5056376;28;20077;-79
2023/06/12 06:44:58;;;;;;;0.10;0.10;;;;;;;22.78;49.28;101703.41;5064173;28;20029;-78
2023/06/12 06:47:24;;;;;;;0.00;0.00;;;;;;;22.85;49.52;101698.50;5059401;28;20071;-79
2023/06/12 06:49:50;;;;;;;0.08;0.08;;;;;;;22.92;49.10;101705.31;5063111;28;20067;-81
2023/06/12 06:52:18;;;;;;;1.00;0.40;;;;;;;23.01;48.92;101701.19;5063047;28;20138;-81
2023/06/12 06:54:44;;;;;;;0.00;0.00;;;;;;;23.11;48.66;101698.81;5060829;28;20012;-81
2023/06/12 06:57:11;;;;;;;0.03;0.03;;;;;;;23.21;48.27;101693.78;5061980;28;20037;-80
2023/06/12 06:59:37;;;;;;;0.10;0.10;;;;;;;23.31;48.73;101688.69;5053073;28;20109;-78
2023/06/12 07:02:04;;;;;;;0.10;0.10;;;;;;;23.42;48.20;101697.00;5052107;28;20045;-80
2023/06/12 07:04:33;;;;;;;0.55;0.55;;;;;;;23.51;47.49;101691.03;5052279;28;20037;-82
2023/06/12 07:06:59;;;;;;;0.00;0.00;;;;;;;23.63;47.04;101689.41;5050117;28;20032;-79
2023/06/12 07:09:25;;;;;;;0.10;0.10;;;;;;;23.75;47.06;101695.88;5050490;28;20045;-79
2023/06/12 07:11:52;;;;;;;0.10;0.10;;;;;;;23.87;46.33;101705.94;5049901;28;20092;-80
2023/06/12 07:14:18;;;;;;;0.10;0.10;;;;;;;23.99;46.20;101692.63;5052882;28;20033;-80
2023/06/12 07:16:44;;;;;;;0.20;0.20;;;;;;;24.10;45.55;101692.84;5052044;28;20045;-81
2023/06/12 07:19:11;;;;;;;0.10;0.10;;;;;;;24.20;43.80;101683.16;5057744;28;20036;-81
2023/06/12 07:21:37;;;;;;;0.22;0.22;;;;;;;24.33;44.86;101687.78;5057611;28;20029;-83
2023/06/12 07:24:04;;;;;;;0.00;0.00;;;;;;;24.45;44.34;101686.97;5057769;28;20036;-83
2023/06/12 07:26:33;;;;;;;0.20;0.20;;;;;;;24.58;44.79;101691.59;5059782;28;20025;-80
2023/06/12 07:28:59;;;;;;;1.23;0.43;;;;;;;24.68;42.90;101688.16;5058579;28;20059;-83
2023/06/12 07:31:25;;;;;;;0.10;0.10;;;;;;;24.81;44.02;101685.53;5053708;28;20202;-81
2023/06/12 07:33:52;;;;;;;2.50;0.85;;;;;;;24.91;43.69;101691.22;5057323;28;20037;-78
2023/06/12 07:36:18;;;;;;;0.10;0.10;;;;;;;24.99;43.02;101691.53;5049357;28;20029;-79
2023/06/12 07:38:44;;;;;;;0.20;0.20;;;;;;;25.08;43.02;101683.75;5050689;28;20136;-79
2023/06/12 07:41:10;;;;;;;0.10;0.10;;;;;;;25.13;43.78;101682.47;5049130;28;20021;-79
2023/06/12 07:43:36;;;;;;;0.00;0.00;;;;;;;25.17;42.88;101684.00;5051644;28;20036;-80
2023/06/12 07:46:03;;;;;;;0.10;0.10;;;;;;;25.22;42.43;101682.81;5056560;28;20029;-79
2023/06/12 07:48:29;;;;;;;0.08;0.08;;;;;;;25.24;41.90;101689.00;5046296;28;20021;-81
2023/06/12 07:50:56;;;;;;;0.10;0.10;;;;;;;25.24;42.50;101678.16;5046070;28;20066;-79
2023/06/12 07:53:23;;;;;;;0.10;0.10;;;;;;;25.28;42.82;101680.53;5051708;28;20025;-80
2023/06/12 07:55:49;;;;;;;0.00;0.00;;;;;;;25.32;42.84;101679.38;5049732;28;20030;-81
2023/06/12 07:58:15;;;;;;;0.25;0.25;;;;;;;25.39;43.58;101682.53;5054360;28;20099;-80
2023/06/12 08:00:42;;;;;;;0.25;0.25;;;;;;;25.46;43.29;101683.84;5055632;28;21018;-80
2023/06/12 08:03:08;;;;;;;0.10;0.10;;;;;;;25.54;44.12;101679.75;5056844;28;20112;-79
2023/06/12 08:05:35;;;;;;;0.10;0.10;;;;;;;25.63;43.45;101681.78;5046618;28;20021;-80
2023/06/12 08:08:04;;;;;;;0.15;0.15;;;;;;;25.72;43.18;101681.16;5048258;28;20034;-80
2023/06/12 08:10:30;;;;;;;0.10;0.10;;;;;;;25.83;42.56;101685.78;5032376;28;20051;-79
2023/06/12 08:12:56;;;;;;;0.20;0.20;;;;;;;25.95;41.60;101684.06;5062523;28;20063;-78
2023/06/12 08:15:23;;;;;;;0.00;0.00;;;;;;;26.10;42.10;101682.97;5053925;28;20083;-79
2023/06/12 08:17:51;;;;;;;0.10;0.10;;;;;;;26.20;41.90;101683.16;5056011;28;20029;-81
2023/06/12 08:20:17;;;;;;;0.10;0.10;;;;;;;26.29;41.18;101678.91;5057268;28;20049;-82
2023/06/12 08:22:43;;;;;;;0.10;0.10;;;;;;;26.46;40.56;101675.81;5045531;28;20021;-81
2023/06/12 08:25:10;;;;;;;1.52;0.80;;;;;;;26.62;41.00;101677.41;5055863;28;20029;-78
2023/06/12 08:27:36;;;;;;;0.20;0.20;;;;;;;26.74;39.28;101678.34;5056311;28;20027;-78
2023/06/12 08:30:04;;;;;;;0.10;0.10;;;;;;;26.87;39.58;101675.56;5040330;28;20026;-78
2023/06/12 08:32:30;;;;;;;0.20;0.20;;;;;;;27.01;38.86;101672.63;5034808;28;20070;-78
2023/06/12 08:34:56;;;;;;;0.30;0.30;;;;;;;27.13;39.88;101677.13;5044407;28;20505;-78
2023/06/12 08:37:22;;;;;;;0.20;0.20;;;;;;;27.29;40.01;101675.94;5044240;28;20037;-81
2023/06/12 08:39:48;;;;;;;0.20;0.20;;;;;;;27.40;39.60;101673.28;5047647;28;20039;-77
2023/06/12 08:42:16;;;;;;;0.10;0.10;;;;;;;27.52;38.92;101665.16;5040212;28;20027;-78
2023/06/12 08:44:46;;;;;;;0.40;0.40;;;;;;;27.69;39.16;101661.94;5056655;28;20067;-79
2023/06/12 08:47:14;;;;;;;0.35;0.25;;;;;;;27.79;38.95;101661.19;5043454;28;20025;-79
2023/06/12 08:49:40;;;;;;;0.10;0.10;;;;;;;27.89;36.78;101654.03;5053126;28;20021;-77
2023/06/12 08:52:07;;;;;;;0.17;0.17;;;;;;;28.04;36.98;101666.41;5052378;28;20071;-78
2023/06/12 08:54:34;;;;;;;1.13;0.98;;;;;;;28.16;37.73;101658.22;5044311;28;20041;-78
2023/06/12 08:57:01;;;;;;;0.17;0.17;;;;;;;28.27;37.23;101663.66;5050276;28;20032;-78
2023/06/12 08:59:27;;;;;;;0.60;0.60;;;;;;;28.35;35.93;101655.72;5056478;28;20027;-78
2023/06/12 09:01:55;;;;;;;3.20;0.47;;;;;;;28.49;36.73;101649.13;5054960;28;20025;-79
2023/06/12 09:04:44;;;;;;;0.70;0.57;;;;;;;28.61;34.21;101652.66;5057903;28;20020;-78
2023/06/12 09:07:17;;;;;;;0.10;0.10;;;;;;;28.73;34.12;101646.19;5053905;28;20025;-76
2023/06/12 09:09:45;;;;;;;0.10;0.10;;;;;;;28.86;34.75;101646.03;5048987;28;20237;-77
2023/06/12 09:12:13;;;;;;;0.10;0.10;;;;;;;28.87;35.02;101650.50;5047345;28;20200;-78
2023/06/12 09:14:41;;;;;;;0.13;0.13;;;;;;;29.02;34.69;101645.59;5048210;28;20264;-78
2023/06/12 09:17:08;;;;;;;0.30;0.30;;;;;;;29.11;34.04;101643.03;5047980;28;20052;-81
2023/06/12 09:19:36;;;;;;;0.20;0.20;;;;;;;29.23;34.54;101638.41;5063620;28;20010;-83
2023/06/12 09:22:03;;;;;;;0.30;0.30;;;;;;;29.29;29.87;101641.47;5057707;28;20001;-79
2023/06/12 09:24:29;;;;;;;1.65;0.57;;;;;;;29.47;31.66;101638.13;5050948;28;20037;-77
2023/06/12 09:26:55;;;;;;;0.28;0.28;;;;;;;29.59;32.42;101637.03;5051693;28;20183;-78
2023/06/12 09:29:30;;;;;;;0.22;0.22;;;;;;;29.70;30.34;101636.94;5048196;28;20037;-77
2023/06/12 09:31:59;;;;;;;0.17;0.17;;;;;;;29.83;31.23;101638.56;5041358;28;20022;-77
2023/06/12 09:34:26;;;;;;;0.43;0.43;;;;;;;29.90;33.07;101645.25;5042897;28;20033;-77
2023/06/12 09:36:53;;;;;;;0.00;0.00;;;;;;;30.01;31.13;101642.41;5040551;28;20037;-77
2023/06/12 09:39:27;;;;;;;0.00;0.00;;;;;;;30.18;30.76;101635.44;5062711;28;20025;-78
2023/06/12 09:41:55;;;;;;;0.15;0.15;;;;;;;30.22;31.28;101638.75;5046500;28;20174;-78
2023/06/12 09:44:22;;;;;;;0.65;0.65;;;;;;;30.36;31.36;101644.78;5052649;28;20026;-78
2023/06/12 09:46:50;;;;;;;0.17;0.17;;;;;;;30.41;29.16;101635.16;5045154;28;20033;-77
2023/06/12 09:49:19;;;;;;;0.13;0.13;;;;;;;30.52;28.62;101634.22;5053235;28;20486;-77
2023/06/12 09:51:49;;;;;;;0.40;0.40;;;;;;;30.59;28.67;101638.09;5048630;28;20029;-80
2023/06/12 09:54:18;;;;;;;0.82;0.60;;;;;;;30.71;28.90;101636.09;5049360;28;20092;-77
2023/06/12 09:56:46;;;;;;;0.10;0.10;;;;;;;30.80;26.55;101631.63;5060514;28;20025;-77
2023/06/12 09:59:18;;;;;;;0.10;0.10;;;;;;;30.85;27.27;101640.25;5051977;28;20029;-77
2023/06/12 10:01:55;;;;;;;0.75;0.75;;;;;;;30.89;28.39;101636.19;5051250;28;20021;-77
2023/06/12 10:04:29;;;;;;;0.10;0.10;;;;;;;30.98;28.35;101639.97;5043950;28;20029;-78
2023/06/12 10:07:03;;;;;;;0.17;0.17;;;;;;;31.07;28.45;101633.63;5050943;28;20021;-76
2023/06/12 10:09:31;;;;;;;0.40;0.40;;;;;;;31.13;25.94;101627.56;5045274;28;20029;-77
2023/06/12 10:11:59;;;;;;;0.10;0.10;;;;;;;31.16;27.11;101640.09;5052773;28;20104;-78
2023/06/12 10:14:27;;;;;;;0.30;0.30;;;;;;;31.26;26.40;101635.47;5064672;28;20028;-77
2023/06/12 10:16:56;;;;;;;1.17;0.70;;;;;;;31.32;26.52;101634.03;5053050;28;20101;-77
2023/06/12 10:19:25;;;;;;;0.40;0.40;;;;;;;31.45;27.44;101634.56;5072033;28;20025;-78
2023/06/12 10:21:55;;;;;;;0.10;0.10;;;;;;;31.48;25.05;101630.66;5062911;28;20017;-77
2023/06/12 10:24:22;;;;;;;0.30;0.30;;;;;;;31.52;24.90;101621.13;5056375;28;20029;-80
2023/06/12 10:26:51;;;;;;;0.13;0.13;;;;;;;31.65;25.50;101622.69;5049043;28;20036;-77
2023/06/12 10:29:36;;;;;;;0.20;0.20;;;;;;;31.76;26.22;101617.03;5039290;28;20108;-79
2023/06/12 10:34:42;;;;;;;0.52;0.52;;;;;;;31.76;25.57;101625.25;5101731;27;1881919;-78
2023/06/12 10:37:44;;;;;;;0.10;0.10;;;;;;;31.91;25.42;101620.13;5146425;28;20046;-79
2023/06/12 10:40:15;;;;;;;0.20;0.15;;;;;;;31.97;26.06;101618.66;5146963;28;20045;-77
2023/06/12 10:43:03;;;;;;;0.17;0.17;;;;;;;32.06;25.65;101612.25;5147293;28;20026;-78
2023/06/12 10:45:32;;;;;;;0.43;0.43;;;;;;;32.02;24.10;101622.66;5146371;28;20035;-77
2023/06/12 10:50:44;;;;;;;0.10;0.10;;;;;;;32.06;24.94;101604.03;5081640;27;20383;-76
2023/06/12 10:55:47;;;;;;;0.00;0.00;;;;;;;32.26;26.55;101602.91;5126446;27;20454;-78
2023/06/12 10:58:21;;;;;;;0.40;0.40;;;;;;;32.38;25.07;101594.47;5126992;28;20028;-80
2023/06/12 11:00:49;;;;;;;0.47;0.47;;;;;;;32.40;24.49;101596.03;5123441;28;20035;-77
2023/06/12 11:03:21;;;;;;;0.43;0.43;;;;;;;32.56;25.71;101598.06;5118555;28;20031;-78
2023/06/12 11:05:54;;;;;;;0.28;0.28;;;;;;;32.62;25.11;101591.06;5125577;28;20028;-78
2023/06/12 11:08:21;;;;;;;0.13;0.13;;;;;;;32.62;22.97;101590.22;5126007;28;20081;-78
2023/06/12 11:10:47;;;;;;;0.20;0.20;;;;;;;32.68;25.28;101595.94;5121666;28;20686;-79
2023/06/12 11:13:13;;;;;;;0.20;0.20;;;;;;;32.73;25.85;101596.31;5126774;28;20043;-80
2023/06/12 11:15:45;;;;;;;1.98;0.98;;;;;;;32.74;23.07;101598.06;5124219;28;20039;-79
2023/06/12 11:18:13;;;;;;;0.85;0.85;;;;;;;32.80;23.83;101590.22;5123760;28;20050;-79
2023/06/12 11:20:40;;;;;;;0.52;0.52;;;;;;;32.84;24.18;101595.22;5125017;28;20038;-77
2023/06/12 11:23:06;;;;;;;0.65;0.57;;;;;;;32.96;23.85;101592.22;5122759;28;20396;-76
2023/06/12 11:25:41;;;;;;;0.10;0.10;;;;;;;33.00;22.99;101593.63;5121878;28;20028;-78
2023/06/12 11:28:07;;;;;;;0.30;0.30;;;;;;;33.08;22.89;101585.44;5124898;28;20012;-80
2023/06/12 11:30:34;;;;;;;0.20;0.20;;;;;;;33.13;24.43;101580.34;5124490;28;20099;-77
2023/06/12 11:33:10;;;;;;;0.20;0.20;;;;;;;33.22;23.75;101568.41;5125681;28;20059;-79
2023/06/12 11:35:40;;;;;;;0.20;0.20;;;;;;;33.25;23.54;101577.31;5125337;28;20020;-78
2023/06/12 11:38:07;;;;;;;0.13;0.13;;;;;;;33.33;22.87;101577.41;5123739;28;20040;-80
2023/06/12 11:40:33;;;;;;;1.10;1.00;;;;;;;33.39;22.44;101580.34;5124521;28;20102;-80